Time;durP1;ratioP1;P1;durP2;ratioP2;P2;SDS_P1;SDS_P2;PMS_P1;PMS_P2;Temp;Humidity;BMP_temperature;BMP_pressure;BME280_temperature;BME280_humidity;BME280_pressure;Samples;Min_cycle;Max_cycle;Signal;HPM_P1;HPM_P2
2022/05/26 00:01:16;;;;;;;1.02;0.30;;;18.10;99.90;;;;;;1917001;75;21051;-84
2022/05/26 00:04:10;;;;;;;2.52;0.40;;;18.10;99.90;;;;;;1918908;73;21120;-85
2022/05/26 00:07:05;;;;;;;0.30;0.10;;;18.10;99.90;;;;;;1938966;73;21184;-86
2022/05/26 00:09:58;;;;;;;2.85;0.45;;;18.00;99.90;;;;;;1873926;76;22335;-85
2022/05/26 00:12:54;;;;;;;2.08;1.10;;;18.00;99.90;;;;;;1916966;75;21054;-85
2022/05/26 00:15:47;;;;;;;0.98;0.30;;;18.10;99.90;;;;;;1917010;75;21143;-86
2022/05/26 00:18:42;;;;;;;1.75;0.23;;;18.10;99.90;;;;;;1927659;73;21585;-86
2022/05/26 00:21:35;;;;;;;1.40;0.30;;;18.00;99.90;;;;;;1910913;73;21193;-86
2022/05/26 00:24:28;;;;;;;0.53;0.30;;;17.90;99.90;;;;;;1927765;73;22368;-85
2022/05/26 00:27:22;;;;;;;0.98;0.20;;;18.00;99.90;;;;;;1916674;75;21065;-86
2022/05/26 00:30:18;;;;;;;1.00;0.30;;;18.00;99.90;;;;;;1918426;73;21510;-86
2022/05/26 00:33:13;;;;;;;0.47;0.28;;;18.00;99.90;;;;;;1931153;73;21106;-86
2022/05/26 00:36:09;;;;;;;0.28;0.20;;;18.00;99.90;;;;;;1850196;76;21565;-86
2022/05/26 00:39:01;;;;;;;0.82;0.20;;;17.90;99.90;;;;;;1950308;73;21098;-85
2022/05/26 00:41:57;;;;;;;0.82;0.20;;;18.00;99.90;;;;;;1929254;73;21153;-85
2022/05/26 00:44:51;;;;;;;1.37;0.30;;;17.80;99.90;;;;;;1915855;74;21161;-86
2022/05/26 00:47:47;;;;;;;0.57;0.20;;;17.80;99.90;;;;;;1924855;73;21209;-86
2022/05/26 00:50:42;;;;;;;0.95;0.40;;;17.80;99.90;;;;;;1950658;73;21092;-87
2022/05/26 00:53:42;;;;;;;0.60;0.20;;;18.00;99.90;;;;;;1937425;73;21051;-85
2022/05/26 00:56:38;;;;;;;2.98;0.57;;;17.90;99.90;;;;;;1944748;73;21628;-88
2022/05/26 00:59:40;;;;;;;0.25;0.20;;;17.80;99.90;;;;;;1926194;74;21117;-86
2022/05/26 01:02:39;;;;;;;1.30;0.35;;;17.90;99.90;;;;;;1937636;73;21183;-86
2022/05/26 01:05:35;;;;;;;0.85;0.30;;;17.80;99.90;;;;;;1926267;73;21120;-87
2022/05/26 01:08:34;;;;;;;1.25;0.20;;;17.60;99.90;;;;;;1925775;74;21122;-87
2022/05/26 01:11:29;;;;;;;0.37;0.25;;;17.70;99.90;;;;;;1925923;74;21179;-85
2022/05/26 01:14:26;;;;;;;0.20;0.20;;;17.70;99.90;;;;;;1925995;74;21051;-86
2022/05/26 01:17:25;;;;;;;0.53;0.28;;;17.70;99.90;;;;;;1925997;74;21138;-85
2022/05/26 01:20:43;;;;;;;0.78;0.20;;;17.60;99.90;;;;;;1926145;74;21176;-87
2022/05/26 01:24:05;;;;;;;1.00;0.20;;;17.60;99.90;;;;;;1925814;74;21187;-87
2022/05/26 01:27:20;;;;;;;1.20;0.50;;;17.60;99.90;;;;;;1898949;74;21109;-88
2022/05/26 01:30:34;;;;;;;2.12;0.30;;;17.50;99.90;;;;;;1901120;74;21519;-86
2022/05/26 01:33:36;;;;;;;1.15;0.30;;;17.50;99.90;;;;;;1938713;73;21160;-86
2022/05/26 01:36:34;;;;;;;1.72;0.40;;;17.60;99.90;;;;;;1927647;73;21683;-86
2022/05/26 01:39:27;;;;;;;;;;;17.60;99.90;;;;;;1928741;74;21062;-86
2022/05/26 01:42:27;;;;;;;1.05;0.35;;;17.50;99.90;;;;;;1925824;74;20203;-86
2022/05/26 01:45:24;;;;;;;0.60;0.20;;;17.50;99.90;;;;;;1925979;74;21165;-87
2022/05/26 01:48:21;;;;;;;0.62;0.40;;;17.40;99.90;;;;;;1925958;74;21083;-86
2022/05/26 01:51:20;;;;;;;0.68;0.20;;;17.40;99.90;;;;;;1925732;74;21180;-87
2022/05/26 01:54:17;;;;;;;2.00;0.30;;;17.50;99.90;;;;;;1925643;74;21068;-86
2022/05/26 01:57:14;;;;;;;3.60;0.30;;;17.50;99.90;;;;;;1924553;73;21062;-86
2022/05/26 02:00:12;;;;;;;1.80;0.40;;;17.50;99.90;;;;;;1938179;73;21148;-86
2022/05/26 02:03:09;;;;;;;3.33;0.30;;;17.40;99.90;;;;;;1943945;73;21098;-85
2022/05/26 02:06:06;;;;;;;1.00;0.30;;;17.40;99.90;;;;;;1925928;74;21164;-86
2022/05/26 02:09:02;;;;;;;0.20;0.20;;;17.30;99.90;;;;;;1925878;74;21094;-86
2022/05/26 02:11:59;;;;;;;1.20;0.42;;;17.20;99.90;;;;;;1949104;73;21221;-85
2022/05/26 02:14:54;;;;;;;0.35;0.23;;;17.20;99.90;;;;;;1925845;74;21159;-86
2022/05/26 02:17:50;;;;;;;2.92;0.35;;;17.20;99.90;;;;;;1925916;74;21235;-86
2022/05/26 02:20:47;;;;;;;1.20;0.30;;;17.20;99.90;;;;;;1925751;74;21064;-86
2022/05/26 02:23:44;;;;;;;1.35;0.20;;;17.20;99.90;;;;;;1925651;74;21585;-87
2022/05/26 02:26:37;;;;;;;1.12;0.30;;;17.20;99.90;;;;;;1932676;73;21128;-86
2022/05/26 02:32:45;;;;;;;0.60;0.30;;;17.20;99.90;;;;;;1927332;73;21131;-86
2022/05/26 02:35:40;;;;;;;1.25;0.30;;;17.10;99.90;;;;;;1939553;73;21092;-87
2022/05/26 02:38:34;;;;;;;1.45;0.40;;;17.00;99.90;;;;;;1941504;73;21117;-86
2022/05/26 02:41:26;;;;;;;6.08;0.90;;;16.90;99.90;;;;;;1926137;73;21169;-86
2022/05/26 02:44:20;;;;;;;0.55;0.30;;;16.90;99.90;;;;;;1926013;74;21572;-86
2022/05/26 02:47:45;;;;;;;1.55;0.35;;;16.90;99.90;;;;;;1926095;74;21522;-87
2022/05/26 02:50:46;;;;;;;0.75;0.20;;;16.80;99.90;;;;;;1919817;74;21070;-86
2022/05/26 02:53:42;;;;;;;1.15;0.40;;;16.70;99.90;;;;;;1915460;74;21183;-86
2022/05/26 02:56:41;;;;;;;1.07;0.30;;;16.80;99.90;;;;;;1917041;75;21168;-86
2022/05/26 02:59:38;;;;;;;2.08;0.25;;;16.70;99.90;;;;;;1917399;75;21055;-86
2022/05/26 03:02:36;;;;;;;1.27;0.30;;;16.80;99.90;;;;;;1917044;75;21063;-86
2022/05/26 03:08:16;;;;;;;4.30;0.42;;;16.70;99.90;;;;;;1954486;72;20145;-85
2022/05/26 03:11:27;;;;;;;2.25;0.50;;;16.60;99.90;;;;;;1918466;74;21047;-85
2022/05/26 03:14:37;;;;;;;1.10;0.30;;;16.60;99.90;;;;;;1905230;75;21084;-87
2022/05/26 03:17:29;;;;;;;0.95;0.50;;;16.60;99.90;;;;;;1900007;75;21099;-87
2022/05/26 03:20:39;;;;;;;0.78;0.30;;;16.60;99.90;;;;;;1898831;75;21106;-86
2022/05/26 03:23:31;;;;;;;0.80;0.30;;;16.50;99.90;;;;;;1886703;75;21167;-86
2022/05/26 03:26:23;;;;;;;1.82;0.30;;;16.40;99.90;;;;;;1906812;75;21219;-86
2022/05/26 03:29:14;;;;;;;0.90;0.30;;;16.30;99.90;;;;;;1905771;75;21110;-86
2022/05/26 03:32:08;;;;;;;0.98;0.47;;;16.20;99.90;;;;;;1900504;75;21039;-86
2022/05/26 03:44:18;;;;;;;0.55;0.30;;;15.70;99.90;;;;;;1946949;72;22125;-85
2022/05/26 03:47:28;;;;;;;0.90;0.40;;;15.80;99.90;;;;;;1917642;73;21097;-86
2022/05/26 03:50:39;;;;;;;0.95;0.37;;;15.70;99.90;;;;;;1940212;73;21121;-87
2022/05/26 03:53:30;;;;;;;1.65;0.40;;;15.70;99.90;;;;;;1917469;75;21153;-87
2022/05/26 03:56:40;;;;;;;1.50;0.35;;;15.60;99.90;;;;;;1917609;75;21050;-86
2022/05/26 03:59:32;;;;;;;2.90;0.37;;;15.70;99.90;;;;;;1931648;73;21106;-87
2022/05/26 04:02:24;;;;;;;0.78;0.30;;;15.60;99.90;;;;;;1920226;73;21158;-87
2022/05/26 04:05:17;;;;;;;3.58;0.40;;;15.70;99.90;;;;;;1944034;73;21141;-87
2022/05/26 04:08:09;;;;;;;0.90;0.40;;;15.70;99.90;;;;;;1929693;73;21535;-87
2022/05/26 04:11:01;;;;;;;0.80;0.23;;;15.70;99.90;;;;;;1917494;75;21044;-87
2022/05/26 04:13:53;;;;;;;0.70;0.30;;;15.70;99.90;;;;;;1917604;75;21132;-86
2022/05/26 04:16:44;;;;;;;1.45;0.20;;;15.70;99.90;;;;;;1922772;73;21050;-86
2022/05/26 04:19:41;;;;;;;2.62;0.40;;;15.80;99.90;;;;;;1951268;73;21497;-86
2022/05/26 04:22:31;;;;;;;2.10;0.40;;;15.70;99.90;;;;;;1935785;73;21102;-84
2022/05/26 04:25:22;;;;;;;1.60;0.30;;;15.70;99.90;;;;;;1921610;73;21047;-85
2022/05/26 04:28:14;;;;;;;3.58;0.70;;;15.70;99.90;;;;;;1917603;75;21087;-87
2022/05/26 04:31:05;;;;;;;1.87;0.33;;;15.70;99.90;;;;;;1917516;75;21058;-86
2022/05/26 04:33:57;;;;;;;1.57;0.30;;;15.60;99.90;;;;;;1917541;75;21188;-76
2022/05/26 04:36:48;;;;;;;1.85;0.35;;;15.40;99.90;;;;;;1917594;75;21092;-76
2022/05/26 04:39:40;;;;;;;1.60;0.78;;;15.40;99.90;;;;;;1917497;75;21209;-76
2022/05/26 04:42:31;;;;;;;0.78;0.30;;;15.50;99.90;;;;;;1940322;73;21133;-75
2022/05/26 04:45:23;;;;;;;0.68;0.30;;;15.40;99.90;;;;;;1917584;75;21077;-77
2022/05/26 04:50:55;;;;;;;1.40;0.40;;;15.40;99.90;;;;;;1945455;72;22541;-77
2022/05/26 04:54:07;;;;;;;0.65;0.47;;;15.40;99.90;;;;;;1939973;73;21057;-78
2022/05/26 04:57:19;;;;;;;1.50;0.40;;;15.60;99.90;;;;;;1917562;75;21249;-79
2022/05/26 05:00:16;;;;;;;0.50;0.30;;;15.60;99.90;;;;;;1940400;73;21768;-79
2022/05/26 05:03:25;;;;;;;0.72;0.30;;;15.70;99.90;;;;;;1917673;75;21546;-79
2022/05/26 05:06:17;;;;;;;1.10;0.30;;;15.70;99.90;;;;;;1917550;75;21141;-78
2022/05/26 05:09:08;;;;;;;2.92;0.50;;;15.70;99.90;;;;;;1929793;73;21094;-77
2022/05/26 05:11:59;;;;;;;2.47;0.90;;;15.70;99.90;;;;;;1920017;73;21063;-78
2022/05/26 05:14:53;;;;;;;1.37;0.40;;;15.80;99.90;;;;;;1917667;75;21087;-77
2022/05/26 05:17:44;;;;;;;1.92;0.50;;;15.90;99.90;;;;;;1937149;73;21503;-77
2022/05/26 05:20:36;;;;;;;2.55;0.45;;;15.90;99.90;;;;;;1917665;75;21134;-77
2022/05/26 05:23:28;;;;;;;1.40;0.37;;;15.90;99.90;;;;;;1917739;75;21100;-77
2022/05/26 05:26:23;;;;;;;1.12;0.35;;;15.80;99.90;;;;;;1940339;73;21052;-77
2022/05/26 05:29:16;;;;;;;0.70;0.42;;;15.80;99.90;;;;;;1917605;75;21130;-77
2022/05/26 05:32:12;;;;;;;1.52;0.40;;;15.90;99.90;;;;;;1933979;73;21120;-80
2022/05/26 05:35:07;;;;;;;1.57;0.50;;;15.80;99.90;;;;;;1880828;76;21075;-79
2022/05/26 05:37:59;;;;;;;1.67;0.45;;;15.80;99.90;;;;;;1940409;73;21063;-79
2022/05/26 05:40:51;;;;;;;1.35;0.50;;;15.80;99.90;;;;;;1917580;75;21174;-80
2022/05/26 05:43:46;;;;;;;1.17;0.45;;;15.70;99.90;;;;;;1917602;75;21620;-79
2022/05/26 05:46:54;;;;;;;2.10;0.37;;;15.70;99.90;;;;;;1917495;75;21060;-80
2022/05/26 05:49:45;;;;;;;1.05;0.40;;;15.80;99.90;;;;;;1915882;75;21088;-79
2022/05/26 05:52:38;;;;;;;0.85;0.40;;;15.80;99.90;;;;;;1917702;75;21067;-79
2022/05/26 05:55:31;;;;;;;1.65;0.60;;;15.90;99.90;;;;;;1905123;75;21165;-78
2022/05/26 05:58:23;;;;;;;2.27;0.40;;;15.90;99.90;;;;;;1905413;75;21588;-78
2022/05/26 06:01:14;;;;;;;3.37;0.60;;;16.00;99.90;;;;;;1921114;73;21130;-80
2022/05/26 06:04:07;;;;;;;1.72;0.33;;;16.10;99.90;;;;;;1933278;73;21097;-79
2022/05/26 06:06:59;;;;;;;2.47;0.50;;;16.10;99.90;;;;;;1923480;74;21058;-79
2022/05/26 06:09:51;;;;;;;3.55;0.60;;;16.10;99.90;;;;;;1917026;73;21495;-80
2022/05/26 06:12:45;;;;;;;2.17;0.37;;;16.20;99.90;;;;;;1912064;74;21180;-83
2022/05/26 06:15:40;;;;;;;1.95;0.60;;;16.30;99.90;;;;;;1908905;73;21654;-82
2022/05/26 06:18:33;;;;;;;2.25;0.50;;;16.40;99.90;;;;;;1924579;73;21122;-82
2022/05/26 06:21:25;;;;;;;2.30;0.80;;;16.60;99.90;;;;;;1925702;73;21186;-82
2022/05/26 06:24:22;;;;;;;2.35;0.50;;;16.70;99.90;;;;;;1923493;74;21168;-82
2022/05/26 06:30:26;;;;;;;1.25;0.42;;;16.90;99.90;;;;;;1917850;74;21044;-82
2022/05/26 06:39:46;;;;;;;2.12;0.85;;;16.90;99.90;;;;;;1904099;75;21118;-82
2022/05/26 06:42:40;;;;;;;0.88;0.47;;;17.00;99.90;;;;;;1916551;75;21096;-82
2022/05/26 06:45:35;;;;;;;0.98;0.42;;;17.00;99.90;;;;;;1910095;73;21117;-82
2022/05/26 06:48:27;;;;;;;1.20;0.75;;;17.10;99.90;;;;;;1917791;73;21158;-82
2022/05/26 06:51:19;;;;;;;1.30;0.45;;;17.20;99.90;;;;;;1916908;74;21160;-82
2022/05/26 06:54:12;;;;;;;3.72;0.28;;;17.30;99.90;;;;;;1892543;73;21099;-82
2022/05/26 06:57:04;;;;;;;1.60;0.30;;;17.30;99.90;;;;;;1927931;73;21521;-81
2022/05/26 06:59:57;;;;;;;3.08;0.40;;;17.40;99.90;;;;;;1916821;75;21511;-81
2022/05/26 07:02:49;;;;;;;1.62;0.40;;;17.50;99.90;;;;;;1916664;75;21164;-81
2022/05/26 07:05:41;;;;;;;1.65;0.45;;;17.50;99.90;;;;;;1916493;75;21097;-81
2022/05/26 07:08:33;;;;;;;0.37;0.30;;;17.60;99.90;;;;;;1916619;75;21056;-81
2022/05/26 07:11:24;;;;;;;1.05;0.30;;;17.60;99.90;;;;;;1937051;73;21602;-82
2022/05/26 07:14:16;;;;;;;1.07;0.50;;;17.80;99.90;;;;;;1916605;75;21082;-81
2022/05/26 07:17:08;;;;;;;2.95;0.42;;;17.90;99.90;;;;;;1916541;73;21212;-81
2022/05/26 07:20:01;;;;;;;1.77;0.30;;;18.00;99.90;;;;;;1916658;75;21160;-81
2022/05/26 07:22:53;;;;;;;2.52;0.60;;;18.00;99.90;;;;;;1939232;73;21092;-81
2022/05/26 07:25:45;;;;;;;1.15;0.45;;;18.10;99.90;;;;;;1916765;75;21124;-80
2022/05/26 07:28:40;;;;;;;1.42;0.40;;;18.20;99.90;;;;;;1916726;75;21128;-81
2022/05/26 07:31:32;;;;;;;0.60;0.30;;;18.20;99.90;;;;;;1916455;75;21066;-82
2022/05/26 07:34:24;;;;;;;2.35;0.50;;;18.30;99.90;;;;;;1916495;75;21164;-81
2022/05/26 07:43:34;;;;;;;0.70;0.30;;;18.30;99.90;;;;;;1933769;73;21103;-81
2022/05/26 07:46:28;;;;;;;1.57;0.40;;;18.30;99.90;;;;;;1916403;75;21145;-82
2022/05/26 07:49:19;;;;;;;1.65;0.50;;;18.40;99.90;;;;;;1917879;73;21165;-81
2022/05/26 07:52:12;;;;;;;2.02;0.35;;;18.40;99.90;;;;;;1921008;74;21177;-82
2022/05/26 07:55:04;;;;;;;1.02;0.30;;;18.40;99.90;;;;;;1926192;74;21097;-81
2022/05/26 07:57:56;;;;;;;1.12;0.30;;;18.40;99.90;;;;;;1939944;73;21043;-81
2022/05/26 08:00:48;;;;;;;1.60;0.30;;;18.30;99.90;;;;;;1937731;73;21067;-81
2022/05/26 08:03:40;;;;;;;0.57;0.28;;;18.40;99.90;;;;;;1933594;73;21079;-81
2022/05/26 08:06:32;;;;;;;0.60;0.33;;;18.50;99.90;;;;;;1926546;74;21110;-81
2022/05/26 08:09:24;;;;;;;1.47;0.45;;;18.50;99.90;;;;;;1926349;74;21106;-82
2022/05/26 08:12:16;;;;;;;0.50;0.20;;;18.50;99.90;;;;;;1926403;74;21047;-81
2022/05/26 08:15:11;;;;;;;0.95;0.30;;;18.40;99.90;;;;;;1926171;74;21090;-81
2022/05/26 08:18:03;;;;;;;2.12;0.85;;;18.40;99.90;;;;;;1926050;74;21138;-81
2022/05/26 08:20:54;;;;;;;0.40;0.25;;;18.50;99.90;;;;;;1865360;76;21535;-81
2022/05/26 08:23:47;;;;;;;1.47;0.30;;;18.70;99.90;;;;;;1915921;75;21084;-81
2022/05/26 08:26:38;;;;;;;0.57;0.30;;;18.70;99.90;;;;;;1923013;73;21506;-81
2022/05/26 08:29:30;;;;;;;1.90;0.53;;;18.80;99.90;;;;;;1949391;73;21549;-81
2022/05/26 08:32:23;;;;;;;0.55;0.20;;;18.90;99.90;;;;;;1916411;75;21588;-81
2022/05/26 08:35:15;;;;;;;1.00;0.40;;;19.00;99.90;;;;;;1916174;75;21127;-81
2022/05/26 08:38:07;;;;;;;1.12;0.40;;;19.00;99.90;;;;;;1915759;75;21639;-81
2022/05/26 08:40:58;;;;;;;0.55;0.40;;;19.10;99.90;;;;;;1915930;75;21100;-81
2022/05/26 08:43:54;;;;;;;1.90;0.50;;;19.10;99.90;;;;;;1935922;73;21106;-81
2022/05/26 08:46:49;;;;;;;1.45;0.30;;;19.20;99.90;;;;;;1931749;73;21106;-81
2022/05/26 08:49:43;;;;;;;1.00;0.37;;;19.30;99.90;;;;;;1934311;73;21108;-81
2022/05/26 08:52:38;;;;;;;0.40;0.33;;;19.40;99.90;;;;;;1923565;73;21074;-81
2022/05/26 08:55:35;;;;;;;1.60;0.30;;;19.50;99.90;;;;;;1926368;74;21136;-81
2022/05/26 08:58:29;;;;;;;0.70;0.30;;;19.60;99.90;;;;;;1947113;73;21153;-82
2022/05/26 09:01:24;;;;;;;1.95;0.30;;;19.60;99.90;;;;;;1942145;73;21049;-82
2022/05/26 09:04:16;;;;;;;1.52;0.35;;;19.60;99.90;;;;;;1926294;74;21102;-82
2022/05/26 09:13:42;;;;;;;2.52;0.30;;;19.80;99.90;;;;;;1937372;73;21120;-81
2022/05/26 09:16:36;;;;;;;0.88;0.50;;;19.80;99.90;;;;;;1957546;73;21682;-81
2022/05/26 09:19:32;;;;;;;0.90;0.40;;;19.80;99.90;;;;;;1926550;73;21132;-81
2022/05/26 09:22:30;;;;;;;0.78;0.40;;;19.90;99.90;;;;;;1926224;74;21171;-81
2022/05/26 09:25:30;;;;;;;;;;;19.90;99.90;;;;;;1929014;73;21106;-82
2022/05/26 09:28:37;;;;;;;1.12;0.40;;;20.00;99.90;;;;;;1926028;74;20118;-81
2022/05/26 09:31:29;;;;;;;1.60;0.40;;;20.00;99.90;;;;;;1925642;74;21175;-81
2022/05/26 09:34:23;;;;;;;0.65;0.30;;;20.10;99.90;;;;;;1925797;74;21181;-81
2022/05/26 09:37:19;;;;;;;;;;;20.20;99.90;;;;;;1929328;74;21058;-81
2022/05/26 09:40:17;;;;;;;0.57;0.30;;;20.30;99.90;;;;;;1941466;73;20227;-81
2022/05/26 09:43:12;;;;;;;1.72;0.40;;;20.50;99.90;;;;;;1949482;73;21121;-81
2022/05/26 09:46:11;;;;;;;2.20;0.40;;;20.50;99.90;;;;;;1949278;73;21132;-81
2022/05/26 09:49:08;;;;;;;0.88;0.30;;;20.60;99.90;;;;;;1929289;73;21091;-81
2022/05/26 09:52:17;;;;;;;1.35;0.53;;;20.60;99.90;;;;;;1939138;73;21076;-81
2022/05/26 09:55:18;;;;;;;1.92;0.42;;;20.70;99.90;;;;;;1908279;74;21155;-82
2022/05/26 09:58:12;;;;;;;1.67;0.30;;;20.80;99.90;;;;;;1923023;73;21184;-81
2022/05/26 10:01:07;;;;;;;0.93;0.42;;;20.90;99.90;;;;;;1915170;73;21189;-81
2022/05/26 10:09:28;;;;;;;0.80;0.40;;;21.00;99.90;;;;;;1940093;72;22087;-81
2022/05/26 10:12:41;;;;;;;0.95;0.42;;;20.90;99.90;;;;;;1895835;75;21102;-81
2022/05/26 10:18:45;;;;;;;0.95;0.40;;;21.30;99.90;;;;;;1932302;72;22242;-81
2022/05/26 10:22:07;;;;;;;1.00;0.30;;;21.30;99.90;;;;;;1911734;75;21185;-81
2022/05/26 10:28:28;;;;;;;2.62;0.42;;;21.50;99.90;;;;;;1933725;72;22608;-81
2022/05/26 10:31:47;;;;;;;1.07;0.40;;;21.40;99.90;;;;;;1905149;75;21713;-82
2022/05/26 10:38:04;;;;;;;1.27;0.50;;;21.50;99.90;;;;;;1937832;72;22207;-81
2022/05/26 10:41:15;;;;;;;;;;;21.70;99.90;;;;;;1903345;75;21110;-81
2022/05/26 10:44:15;;;;;;;1.05;0.40;;;21.70;99.90;;;;;;1889469;75;20160;-81
2022/05/26 10:47:11;;;;;;;1.22;0.47;;;21.70;99.90;;;;;;1875345;76;21162;-81
2022/05/26 10:50:06;;;;;;;2.15;0.50;;;21.90;99.90;;;;;;1886476;74;21114;-81
2022/05/26 10:53:03;;;;;;;2.27;0.30;;;21.90;99.90;;;;;;1891647;75;21196;-81
2022/05/26 10:55:58;;;;;;;1.07;0.40;;;21.90;99.90;;;;;;1883384;75;21125;-81
2022/05/26 11:01:35;;;;;;;1.12;0.50;;;21.90;99.90;;;;;;1948832;72;22146;-82
2022/05/26 11:07:32;;;;;;;1.35;0.35;;;22.10;99.90;;;;;;1975854;72;22122;-81
2022/05/26 11:10:47;;;;;;;2.12;0.40;;;22.10;99.90;;;;;;1913296;73;21107;-81
2022/05/26 11:14:02;;;;;;;0.82;0.40;;;22.40;99.90;;;;;;1937200;73;21060;-80
2022/05/26 11:20:28;;;;;;;0.95;0.40;;;22.40;99.90;;;;;;1923558;73;21140;-81
2022/05/26 11:26:02;;;;;;;1.07;0.35;;;22.60;99.90;;;;;;1942698;72;22764;-81
2022/05/26 11:29:16;;;;;;;1.05;0.40;;;22.50;99.90;;;;;;1916974;75;21657;-82
2022/05/26 11:39:09;;;;;;;2.42;0.50;;;22.60;99.90;;;;;;1919293;73;21126;-82
2022/05/26 11:42:03;;;;;;;1.17;0.35;;;22.60;99.90;;;;;;1936559;73;21136;-82
2022/05/26 11:47:55;;;;;;;1.50;0.47;;;22.90;99.90;;;;;;1933102;72;22712;-82
2022/05/26 11:54:06;;;;;;;1.95;0.60;;;23.00;99.90;;;;;;1939593;72;22203;-83
2022/05/26 11:57:40;;;;;;;0.93;0.50;;;23.20;99.90;;;;;;1899904;75;21105;-82
2022/05/26 12:00:52;;;;;;;1.77;0.60;;;23.10;99.90;;;;;;1881949;75;21625;-82
2022/05/26 12:03:55;;;;;;;0.78;0.40;;;23.30;99.90;;;;;;1889960;75;21171;-83
2022/05/26 12:07:08;;;;;;;2.12;0.40;;;23.40;99.90;;;;;;1896724;75;21184;-83
2022/05/26 12:10:03;;;;;;;1.52;0.50;;;23.50;99.90;;;;;;1872807;75;21182;-82
2022/05/26 12:13:28;;;;;;;2.95;0.47;;;23.50;99.90;;;;;;1899709;75;21095;-82
2022/05/26 12:16:30;;;;;;;1.25;0.50;;;23.50;99.90;;;;;;1873463;75;21057;-82
2022/05/26 12:19:42;;;;;;;1.85;0.42;;;23.60;99.90;;;;;;1891289;75;21051;-82
2022/05/26 12:22:37;;;;;;;2.08;0.40;;;23.80;99.90;;;;;;1882837;75;21075;-82
2022/05/26 12:25:30;;;;;;;0.42;0.30;;;23.70;99.90;;;;;;1899381;75;21150;-82
2022/05/26 12:28:32;;;;;;;1.62;0.33;;;23.70;99.90;;;;;;1887689;75;21094;-81
2022/05/26 12:31:24;;;;;;;1.17;0.40;;;23.70;99.90;;;;;;1901828;75;21059;-82
2022/05/26 12:34:22;;;;;;;2.90;0.40;;;23.60;99.90;;;;;;1900362;75;21099;-82
2022/05/26 12:37:21;;;;;;;0.62;0.30;;;23.90;99.90;;;;;;1882104;75;21067;-82
2022/05/26 12:40:21;;;;;;;;;;;24.00;99.90;;;;;;1894008;75;21157;-82
2022/05/26 12:46:03;;;;;;;1.47;0.40;;;24.10;99.90;;;;;;1933494;72;22253;-82
2022/05/26 12:52:03;;;;;;;2.25;0.30;;;24.20;99.90;;;;;;1941389;72;22192;-83
2022/05/26 12:55:22;;;;;;;0.30;0.30;;;24.00;99.90;;;;;;1917051;75;21109;-84
2022/05/26 12:58:38;;;;;;;2.05;0.45;;;24.00;99.90;;;;;;1916914;75;21023;-82
2022/05/26 13:04:14;;;;;;;2.42;0.65;;;24.00;99.90;;;;;;1931259;72;22366;-81
2022/05/26 13:10:08;;;;;;;1.75;0.40;;;24.10;99.90;;;;;;1950813;72;22692;-82
2022/05/26 13:16:24;;;;;;;1.30;0.62;;;24.30;99.90;;;;;;1926028;72;28059;-82
2022/05/26 13:22:17;;;;;;;2.62;0.50;;;24.70;99.90;;;;;;1930685;72;22322;-81
2022/05/26 13:25:29;;;;;;;0.47;0.40;;;24.60;99.90;;;;;;1896598;75;21051;-81
2022/05/26 13:28:43;;;;;;;0.45;0.40;;;24.60;99.90;;;;;;1882946;75;21071;-82
2022/05/26 13:35:18;;;;;;;2.47;0.40;;;24.70;99.90;;;;;;1883837;75;21090;-82
2022/05/26 13:38:22;;;;;;;1.42;0.53;;;24.70;99.90;;;;;;1879799;75;21599;-81
2022/05/26 13:41:17;;;;;;;2.70;0.50;;;24.80;99.90;;;;;;1885100;75;21110;-82
2022/05/26 13:44:12;;;;;;;1.60;0.33;;;24.80;99.90;;;;;;1897524;75;21168;-81
2022/05/26 13:47:08;;;;;;;1.10;0.35;;;25.00;99.90;;;;;;1878446;75;21337;-81
2022/05/26 13:50:02;;;;;;;1.30;0.40;;;25.00;99.90;;;;;;1888384;75;21086;-81
2022/05/26 13:55:36;;;;;;;2.22;0.40;;;25.30;99.90;;;;;;1933284;72;22138;-81
2022/05/26 14:01:27;;;;;;;1.77;0.40;;;25.60;99.90;;;;;;1933821;72;22628;-81
2022/05/26 14:04:40;;;;;;;0.70;0.40;;;25.70;99.90;;;;;;1891872;75;21097;-82
2022/05/26 14:10:47;;;;;;;2.70;0.50;;;25.70;99.90;;;;;;1934153;72;22288;-82
2022/05/26 14:13:57;;;;;;;1.98;0.40;;;25.90;99.90;;;;;;1892444;75;21555;-82
2022/05/26 14:17:09;;;;;;;3.95;0.45;;;26.00;99.90;;;;;;1888106;75;21637;-82
2022/05/26 14:20:03;;;;;;;1.98;0.40;;;26.00;99.90;;;;;;1892292;75;21139;-82
2022/05/26 14:23:13;;;;;;;2.67;0.50;;;26.40;99.90;;;;;;1900474;75;21068;-82
2022/05/26 14:26:08;;;;;;;1.07;0.40;;;26.50;99.90;;;;;;1892409;75;21165;-82
2022/05/26 14:29:01;;;;;;;1.98;0.40;;;26.70;99.90;;;;;;1889928;75;21095;-82
2022/05/26 14:32:01;;;;;;;1.57;0.40;;;26.60;99.90;;;;;;1884671;75;21534;-82
2022/05/26 14:34:55;;;;;;;3.50;0.40;;;26.70;99.90;;;;;;1899219;75;21047;-82
2022/05/26 14:37:48;;;;;;;2.22;0.50;;;26.70;99.90;;;;;;1898335;75;21060;-81
2022/05/26 14:40:39;;;;;;;2.05;0.70;;;26.70;99.90;;;;;;1904149;75;21060;-83
2022/05/26 14:43:36;;;;;;;2.05;0.40;;;27.20;99.90;;;;;;1890758;75;21122;-82
2022/05/26 14:46:28;;;;;;;1.07;0.35;;;27.00;99.90;;;;;;1896556;75;21113;-83
2022/05/26 14:51:59;;;;;;;0.98;0.40;;;27.10;99.90;;;;;;1949708;72;22287;-82
2022/05/26 14:57:48;;;;;;;3.70;0.60;;;27.50;99.70;;;;;;1930066;72;22185;-83
2022/05/26 15:00:58;;;;;;;2.37;0.40;;;27.50;99.50;;;;;;1890431;75;21118;-82
2022/05/26 15:04:09;;;;;;;1.55;0.40;;;27.90;98.80;;;;;;1889701;75;21097;-82
2022/05/26 15:07:00;;;;;;;1.60;0.50;;;28.00;98.30;;;;;;1875893;75;21116;-82
2022/05/26 15:10:12;;;;;;;1.77;0.50;;;27.80;98.20;;;;;;1900130;75;21099;-82
2022/05/26 15:13:04;;;;;;;1.52;0.40;;;27.80;97.80;;;;;;1894378;75;21080;-81
2022/05/26 15:18:39;;;;;;;1.45;0.30;;;28.20;97.20;;;;;;1941511;72;22230;-83
2022/05/26 15:21:50;;;;;;;1.05;0.30;;;28.50;96.40;;;;;;1911298;72;21129;-82
2022/05/26 15:25:05;;;;;;;2.85;0.42;;;28.90;95.60;;;;;;1929375;73;21071;-82
2022/05/26 15:30:36;;;;;;;2.12;0.70;;;27.20;97.20;;;;;;1947115;72;22156;-81
2022/05/26 15:36:28;;;;;;;1.95;0.50;;;27.20;97.10;;;;;;1952993;72;23001;-81
2022/05/26 15:39:39;;;;;;;2.00;0.60;;;27.50;96.50;;;;;;1904699;75;21097;-82
2022/05/26 15:42:50;;;;;;;3.47;0.47;;;27.60;96.30;;;;;;1905050;75;21157;-83
2022/05/26 15:45:43;;;;;;;1.67;0.40;;;27.80;96.00;;;;;;1904805;75;21079;-83
2022/05/26 15:48:53;;;;;;;1.45;0.42;;;26.90;96.70;;;;;;1906995;74;21082;-82
2022/05/26 15:51:47;;;;;;;2.90;0.37;;;25.90;98.40;;;;;;1910194;73;21039;-82
2022/05/26 15:54:38;;;;;;;2.37;0.60;;;25.60;98.60;;;;;;1904903;75;21079;-82
2022/05/26 15:57:30;;;;;;;0.42;0.42;;;25.50;99.10;;;;;;1916175;74;21074;-82
2022/05/26 16:03:05;;;;;;;2.52;0.47;;;25.80;98.90;;;;;;1957240;72;22302;-82
2022/05/26 16:06:16;;;;;;;4.83;0.95;;;25.90;98.80;;;;;;1931435;73;21136;-82
2022/05/26 16:09:27;;;;;;;1.87;0.30;;;26.60;97.90;;;;;;1917504;73;21381;-81
2022/05/26 16:12:19;;;;;;;0.78;0.40;;;27.10;97.00;;;;;;1917342;75;21109;-82
2022/05/26 16:15:30;;;;;;;1.62;0.55;;;27.20;96.70;;;;;;1926867;73;21140;-82
2022/05/26 16:18:21;;;;;;;1.00;0.40;;;27.90;95.80;;;;;;1944835;73;21090;-81
2022/05/26 16:21:13;;;;;;;1.92;0.37;;;27.70;96.00;;;;;;1924965;73;21113;-83
2022/05/26 16:26:43;;;;;;;2.30;0.30;;;28.40;95.10;;;;;;1966450;72;22255;-82
2022/05/26 16:29:53;;;;;;;1.17;0.40;;;28.60;94.60;;;;;;1930955;73;21631;-83
2022/05/26 16:33:05;;;;;;;2.10;0.55;;;28.90;93.90;;;;;;1917804;73;21145;-83
2022/05/26 16:42:09;;;;;;;1.05;0.50;;;28.20;94.20;;;;;;1940873;72;22206;-82
2022/05/26 16:45:19;;;;;;;4.30;0.50;;;28.00;94.70;;;;;;1878994;75;21134;-83
2022/05/26 16:51:09;;;;;;;1.57;0.50;;;28.40;93.80;;;;;;1926106;72;22299;-81
2022/05/26 16:54:23;;;;;;;2.72;0.50;;;28.20;94.30;;;;;;1888544;74;21155;-81
2022/05/26 16:57:33;;;;;;;1.37;0.45;;;28.30;94.00;;;;;;1920023;74;21159;-82
2022/05/26 17:00:25;;;;;;;6.37;0.70;;;28.00;94.20;;;;;;1901010;74;21067;-82
2022/05/26 17:03:36;;;;;;;1.52;0.60;;;28.00;94.10;;;;;;1895388;75;21042;-81
2022/05/26 17:11:47;;;;;;;2.40;0.40;;;27.60;94.80;;;;;;1930943;72;22161;-82
2022/05/26 17:21:54;;;;;;;2.10;0.45;;;26.70;96.30;;;;;;1904872;75;21051;-82
2022/05/26 17:25:04;;;;;;;2.92;0.85;;;26.50;96.50;;;;;;1897681;75;21108;-81
2022/05/26 17:27:57;;;;;;;1.45;0.40;;;26.00;97.20;;;;;;1887221;75;21174;-81
2022/05/26 17:30:49;;;;;;;0.98;0.30;;;25.70;97.50;;;;;;1896702;73;21154;-82
2022/05/26 17:36:22;;;;;;;2.15;0.47;;;24.90;99.20;;;;;;1944492;72;22303;-82
2022/05/26 17:39:32;;;;;;;0.62;0.35;;;24.80;99.60;;;;;;1907754;73;21059;-81
2022/05/26 17:42:43;;;;;;;2.58;0.40;;;24.70;99.80;;;;;;1904585;75;21082;-82
2022/05/26 17:45:34;;;;;;;1.92;0.50;;;24.40;99.90;;;;;;1904606;75;21767;-83
2022/05/26 17:51:24;;;;;;;1.90;0.42;;;23.90;99.90;;;;;;1942586;72;22213;-82
2022/05/26 17:54:36;;;;;;;1.02;0.40;;;24.10;99.90;;;;;;1894118;75;21082;-81
2022/05/26 17:57:46;;;;;;;3.02;0.45;;;24.50;99.90;;;;;;1896033;75;21085;-82
2022/05/26 18:04:06;;;;;;;2.47;0.60;;;24.50;99.90;;;;;;1894524;75;21090;-81
2022/05/26 18:06:58;;;;;;;3.00;0.50;;;24.60;99.90;;;;;;1906392;75;21142;-81